sensor_id;sensor_type;location;lat;lon;timestamp;P1;P2;P0
46302;PMS7003;32029;51.358;5.628;2024-02-15T00:00:23;26.00;22.67;14.00
46302;PMS7003;32029;51.358;5.628;2024-02-15T00:02:52;30.00;23.00;15.00
46302;PMS7003;32029;51.358;5.628;2024-02-15T00:05:19;27.67;20.33;13.00
46302;PMS7003;32029;51.358;5.628;2024-02-15T00:07:46;21.00;20.33;13.00
46302;PMS7003;32029;51.358;5.628;2024-02-15T00:10:15;28.33;22.00;13.67
46302;PMS7003;32029;51.358;5.628;2024-02-15T00:12:42;22.67;20.33;14.67
46302;PMS7003;32029;51.358;5.628;2024-02-15T00:15:09;21.00;20.00;12.00
46302;PMS7003;32029;51.358;5.628;2024-02-15T00:17:37;25.00;24.67;17.33
46302;PMS7003;32029;51.358;5.628;2024-02-15T00:20:04;28.00;25.67;14.67
46302;PMS7003;32029;51.358;5.628;2024-02-15T00:22:36;24.67;22.33;14.00
46302;PMS7003;32029;51.358;5.628;2024-02-15T00:25:03;23.00;21.00;13.00
46302;PMS7003;32029;51.358;5.628;2024-02-15T00:27:32;17.00;15.50;12.00
46302;PMS7003;32029;51.358;5.628;2024-02-15T00:30:03;23.33;20.67;13.67
46302;PMS7003;32029;51.358;5.628;2024-02-15T00:32:33;18.33;18.33;14.00
46302;PMS7003;32029;51.358;5.628;2024-02-15T00:35:01;25.00;20.67;15.00
46302;PMS7003;32029;51.358;5.628;2024-02-15T00:37:28;19.00;17.00;13.00
46302;PMS7003;32029;51.358;5.628;2024-02-15T00:39:54;21.33;18.00;13.00
46302;PMS7003;32029;51.358;5.628;2024-02-15T00:42:22;19.67;18.33;11.00
46302;PMS7003;32029;51.358;5.628;2024-02-15T00:44:50;23.67;21.00;15.00
46302;PMS7003;32029;51.358;5.628;2024-02-15T00:47:17;15.50;14.00;10.50
46302;PMS7003;32029;51.358;5.628;2024-02-15T00:49:46;22.33;19.00;12.00
46302;PMS7003;32029;51.358;5.628;2024-02-15T00:52:13;17.33;13.33;10.00
46302;PMS7003;32029;51.358;5.628;2024-02-15T00:54:40;21.33;19.67;12.67
46302;PMS7003;32029;51.358;5.628;2024-02-15T00:57:07;21.50;20.50;14.00
46302;PMS7003;32029;51.358;5.628;2024-02-15T00:59:34;15.50;15.50;11.50
46302;PMS7003;32029;51.358;5.628;2024-02-15T01:02:04;20.00;18.50;11.00
46302;PMS7003;32029;51.358;5.628;2024-02-15T01:04:34;17.67;13.33;11.33
46302;PMS7003;32029;51.358;5.628;2024-02-15T01:07:01;13.00;13.00;11.00
46302;PMS7003;32029;51.358;5.628;2024-02-15T01:09:28;14.00;13.00;11.00
46302;PMS7003;32029;51.358;5.628;2024-02-15T01:11:55;16.67;14.67;11.67
46302;PMS7003;32029;51.358;5.628;2024-02-15T01:14:22;17.33;15.00;11.00
46302;PMS7003;32029;51.358;5.628;2024-02-15T01:16:49;16.33;14.00;11.67
46302;PMS7003;32029;51.358;5.628;2024-02-15T01:19:16;17.67;14.00;10.67
46302;PMS7003;32029;51.358;5.628;2024-02-15T01:21:43;14.33;14.00;11.00
46302;PMS7003;32029;51.358;5.628;2024-02-15T01:24:10;13.00;13.00;11.00
46302;PMS7003;32029;51.358;5.628;2024-02-15T01:26:37;13.00;12.00;8.33
46302;PMS7003;32029;51.358;5.628;2024-02-15T01:29:04;15.67;13.00;10.00
46302;PMS7003;32029;51.358;5.628;2024-02-15T01:31:31;16.67;12.33;9.33
46302;PMS7003;32029;51.358;5.628;2024-02-15T01:33:58;16.67;14.00;9.67
46302;PMS7003;32029;51.358;5.628;2024-02-15T01:36:24;13.00;12.67;9.33
46302;PMS7003;32029;51.358;5.628;2024-02-15T01:38:53;13.00;12.67;9.33
46302;PMS7003;32029;51.358;5.628;2024-02-15T01:41:20;14.00;13.00;9.67
46302;PMS7003;32029;51.358;5.628;2024-02-15T01:43:47;20.33;14.00;11.00
46302;PMS7003;32029;51.358;5.628;2024-02-15T01:46:16;13.00;13.00;10.00
46302;PMS7003;32029;51.358;5.628;2024-02-15T01:48:43;20.00;13.67;10.00
46302;PMS7003;32029;51.358;5.628;2024-02-15T01:51:12;14.33;14.33;9.67
46302;PMS7003;32029;51.358;5.628;2024-02-15T01:53:41;13.67;10.67;6.00
46302;PMS7003;32029;51.358;5.628;2024-02-15T01:56:09;17.67;17.33;11.00
46302;PMS7003;32029;51.358;5.628;2024-02-15T01:58:40;12.00;10.33;9.00
46302;PMS7003;32029;51.358;5.628;2024-02-15T02:01:08;15.00;13.00;9.33
46302;PMS7003;32029;51.358;5.628;2024-02-15T02:03:35;14.67;13.33;10.00
46302;PMS7003;32029;51.358;5.628;2024-02-15T02:06:02;14.33;12.33;10.00
46302;PMS7003;32029;51.358;5.628;2024-02-15T02:08:29;20.00;15.33;11.00
46302;PMS7003;32029;51.358;5.628;2024-02-15T02:10:56;15.00;11.67;8.33
46302;PMS7003;32029;51.358;5.628;2024-02-15T02:13:23;16.00;14.33;10.00
46302;PMS7003;32029;51.358;5.628;2024-02-15T02:15:50;14.00;13.00;8.67
46302;PMS7003;32029;51.358;5.628;2024-02-15T02:18:18;13.33;12.00;9.00
46302;PMS7003;32029;51.358;5.628;2024-02-15T02:20:45;13.00;11.67;9.33
46302;PMS7003;32029;51.358;5.628;2024-02-15T02:23:13;15.00;13.00;10.00
46302;PMS7003;32029;51.358;5.628;2024-02-15T02:25:42;11.67;11.00;7.00
46302;PMS7003;32029;51.358;5.628;2024-02-15T02:28:10;14.67;12.67;10.67
46302;PMS7003;32029;51.358;5.628;2024-02-15T02:30:39;10.20;6.80;5.00
46302;PMS7003;32029;51.358;5.628;2024-02-15T02:33:11;13.67;12.33;7.67
46302;PMS7003;32029;51.358;5.628;2024-02-15T02:35:45;10.67;10.67;7.00
46302;PMS7003;32029;51.358;5.628;2024-02-15T02:38:12;11.67;11.00;7.00
46302;PMS7003;32029;51.358;5.628;2024-02-15T02:40:40;13.33;11.00;7.67
46302;PMS7003;32029;51.358;5.628;2024-02-15T02:43:08;16.33;14.00;9.00
46302;PMS7003;32029;51.358;5.628;2024-02-15T02:45:35;14.33;12.00;10.00
46302;PMS7003;32029;51.358;5.628;2024-02-15T02:48:02;12.67;11.33;9.67
46302;PMS7003;32029;51.358;5.628;2024-02-15T02:50:28;13.00;12.00;7.00
46302;PMS7003;32029;51.358;5.628;2024-02-15T02:52:55;13.00;11.00;5.00
46302;PMS7003;32029;51.358;5.628;2024-02-15T02:55:22;10.33;9.00;6.67
46302;PMS7003;32029;51.358;5.628;2024-02-15T02:57:49;10.67;9.00;6.00
46302;PMS7003;32029;51.358;5.628;2024-02-15T03:00:16;12.67;9.00;7.00
46302;PMS7003;32029;51.358;5.628;2024-02-15T03:02:47;14.40;10.00;7.20
46302;PMS7003;32029;51.358;5.628;2024-02-15T03:05:15;10.00;10.00;7.67
46302;PMS7003;32029;51.358;5.628;2024-02-15T03:07:42;10.00;9.67;7.00
46302;PMS7003;32029;51.358;5.628;2024-02-15T03:10:09;12.33;8.67;6.00
46302;PMS7003;32029;51.358;5.628;2024-02-15T03:12:39;10.67;8.33;5.33
46302;PMS7003;32029;51.358;5.628;2024-02-15T03:15:07;9.20;6.40;5.60
46302;PMS7003;32029;51.358;5.628;2024-02-15T03:17:38;11.00;8.33;5.00
46302;PMS7003;32029;51.358;5.628;2024-02-15T03:20:06;11.00;9.33;6.00
46302;PMS7003;32029;51.358;5.628;2024-02-15T03:25:20;8.40;8.40;6.80
46302;PMS7003;32029;51.358;5.628;2024-02-15T03:27:52;5.80;5.60;5.00
46302;PMS7003;32029;51.358;5.628;2024-02-15T03:30:20;8.00;7.33;6.00
46302;PMS7003;32029;51.358;5.628;2024-02-15T03:32:53;12.00;7.33;5.67
46302;PMS7003;32029;51.358;5.628;2024-02-15T03:35:21;6.00;5.00;5.00
46302;PMS7003;32029;51.358;5.628;2024-02-15T03:37:50;7.67;7.67;6.00
46302;PMS7003;32029;51.358;5.628;2024-02-15T03:40:18;9.33;6.00;5.00
46302;PMS7003;32029;51.358;5.628;2024-02-15T03:42:47;11.00;7.60;5.40
46302;PMS7003;32029;51.358;5.628;2024-02-15T03:45:13;7.00;7.00;5.00
46302;PMS7003;32029;51.358;5.628;2024-02-15T03:47:41;5.60;5.60;4.00
46302;PMS7003;32029;51.358;5.628;2024-02-15T03:50:09;5.80;4.80;4.60
46302;PMS7003;32029;51.358;5.628;2024-02-15T03:52:37;6.67;5.33;4.33
46302;PMS7003;32029;51.358;5.628;2024-02-15T03:55:05;6.33;6.00;5.00
46302;PMS7003;32029;51.358;5.628;2024-02-15T03:57:33;6.00;5.00;4.00
46302;PMS7003;32029;51.358;5.628;2024-02-15T04:00:00;9.00;5.00;3.00
46302;PMS7003;32029;51.358;5.628;2024-02-15T04:02:28;5.60;3.60;3.20
46302;PMS7003;32029;51.358;5.628;2024-02-15T04:04:57;6.20;4.40;3.40
46302;PMS7003;32029;51.358;5.628;2024-02-15T04:07:25;6.60;5.40;4.40
46302;PMS7003;32029;51.358;5.628;2024-02-15T04:09:54;6.40;5.00;4.00
46302;PMS7003;32029;51.358;5.628;2024-02-15T04:12:22;4.20;3.40;2.00
46302;PMS7003;32029;51.358;5.628;2024-02-15T04:14:49;6.20;6.20;4.60
46302;PMS7003;32029;51.358;5.628;2024-02-15T04:17:17;4.00;4.00;4.00
46302;PMS7003;32029;51.358;5.628;2024-02-15T04:19:48;5.00;4.00;3.00
46302;PMS7003;32029;51.358;5.628;2024-02-15T04:22:18;6.40;6.40;4.00
46302;PMS7003;32029;51.358;5.628;2024-02-15T04:24:45;6.67;6.00;5.00
46302;PMS7003;32029;51.358;5.628;2024-02-15T04:27:12;5.00;5.00;4.00
46302;PMS7003;32029;51.358;5.628;2024-02-15T04:29:41;5.00;4.20;3.00
46302;PMS7003;32029;51.358;5.628;2024-02-15T04:32:10;4.00;4.00;3.00
46302;PMS7003;32029;51.358;5.628;2024-02-15T04:34:38;6.00;6.00;4.00
46302;PMS7003;32029;51.358;5.628;2024-02-15T04:37:05;5.00;5.00;4.00
46302;PMS7003;32029;51.358;5.628;2024-02-15T04:39:36;6.00;4.40;3.00
46302;PMS7003;32029;51.358;5.628;2024-02-15T04:42:03;5.00;3.67;3.00
46302;PMS7003;32029;51.358;5.628;2024-02-15T04:44:33;5.00;3.60;3.00
46302;PMS7003;32029;51.358;5.628;2024-02-15T04:47:02;4.20;4.00;3.20
46302;PMS7003;32029;51.358;5.628;2024-02-15T04:49:34;6.20;5.00;4.20
46302;PMS7003;32029;51.358;5.628;2024-02-15T04:52:05;4.20;4.20;4.00
46302;PMS7003;32029;51.358;5.628;2024-02-15T04:54:33;3.80;3.60;2.80
46302;PMS7003;32029;51.358;5.628;2024-02-15T04:57:00;6.00;4.00;3.00
46302;PMS7003;32029;51.358;5.628;2024-02-15T04:59:28;5.80;5.00;4.20
46302;PMS7003;32029;51.358;5.628;2024-02-15T05:01:57;6.80;3.60;3.00
46302;PMS7003;32029;51.358;5.628;2024-02-15T05:04:24;5.00;5.00;4.67
46302;PMS7003;32029;51.358;5.628;2024-02-15T05:06:51;4.33;3.33;3.00
46302;PMS7003;32029;51.358;5.628;2024-02-15T05:09:20;4.00;4.00;3.60
46302;PMS7003;32029;51.358;5.628;2024-02-15T05:11:49;4.33;3.67;3.00
46302;PMS7003;32029;51.358;5.628;2024-02-15T05:14:17;5.00;4.00;3.20
46302;PMS7003;32029;51.358;5.628;2024-02-15T05:16:45;9.67;5.00;4.00
46302;PMS7003;32029;51.358;5.628;2024-02-15T05:19:17;5.00;4.00;3.00
46302;PMS7003;32029;51.358;5.628;2024-02-15T05:21:45;5.20;3.20;3.20
46302;PMS7003;32029;51.358;5.628;2024-02-15T05:24:13;3.67;3.00;3.00
46302;PMS7003;32029;51.358;5.628;2024-02-15T05:26:43;3.60;3.20;3.00
46302;PMS7003;32029;51.358;5.628;2024-02-15T05:29:12;3.33;3.33;3.00
46302;PMS7003;32029;51.358;5.628;2024-02-15T05:31:39;5.00;5.00;4.00
46302;PMS7003;32029;51.358;5.628;2024-02-15T05:34:07;5.00;5.00;4.00
46302;PMS7003;32029;51.358;5.628;2024-02-15T05:36:37;4.67;3.33;3.00
46302;PMS7003;32029;51.358;5.628;2024-02-15T05:39:05;4.00;3.67;3.67
46302;PMS7003;32029;51.358;5.628;2024-02-15T05:41:32;5.00;5.00;4.00
46302;PMS7003;32029;51.358;5.628;2024-02-15T05:43:59;5.67;4.67;4.00
46302;PMS7003;32029;51.358;5.628;2024-02-15T05:46:27;6.25;4.50;4.00
46302;PMS7003;32029;51.358;5.628;2024-02-15T05:48:58;4.00;2.80;2.40
46302;PMS7003;32029;51.358;5.628;2024-02-15T05:51:27;9.00;4.80;3.80
46302;PMS7003;32029;51.358;5.628;2024-02-15T05:53:54;6.00;6.00;4.00
46302;PMS7003;32029;51.358;5.628;2024-02-15T05:56:26;6.00;3.00;3.00
46302;PMS7003;32029;51.358;5.628;2024-02-15T05:58:53;6.80;3.20;3.00
46302;PMS7003;32029;51.358;5.628;2024-02-15T06:01:20;5.33;4.00;3.00
46302;PMS7003;32029;51.358;5.628;2024-02-15T06:03:48;4.60;3.40;2.80
46302;PMS7003;32029;51.358;5.628;2024-02-15T06:06:16;4.00;4.00;2.40
46302;PMS7003;32029;51.358;5.628;2024-02-15T06:08:45;5.60;3.40;3.00
46302;PMS7003;32029;51.358;5.628;2024-02-15T06:11:13;6.67;4.67;3.00
46302;PMS7003;32029;51.358;5.628;2024-02-15T06:13:41;4.33;4.33;4.00
46302;PMS7003;32029;51.358;5.628;2024-02-15T06:16:09;4.60;4.00;3.20
46302;PMS7003;32029;51.358;5.628;2024-02-15T06:18:37;3.00;3.00;3.00
46302;PMS7003;32029;51.358;5.628;2024-02-15T06:21:05;5.80;3.80;3.00
46302;PMS7003;32029;51.358;5.628;2024-02-15T06:23:33;4.80;4.00;3.00
46302;PMS7003;32029;51.358;5.628;2024-02-15T06:26:00;2.00;2.00;1.33
46302;PMS7003;32029;51.358;5.628;2024-02-15T06:28:30;6.00;3.67;3.00
46302;PMS7003;32029;51.358;5.628;2024-02-15T06:31:15;5.67;3.00;2.67
46302;PMS7003;32029;51.358;5.628;2024-02-15T06:34:00;5.67;3.33;3.00
46302;PMS7003;32029;51.358;5.628;2024-02-15T06:36:46;3.00;3.00;2.00
46302;PMS7003;32029;51.358;5.628;2024-02-15T06:39:33;6.00;3.60;3.00
46302;PMS7003;32029;51.358;5.628;2024-02-15T06:42:13;3.67;3.00;3.00
46302;PMS7003;32029;51.358;5.628;2024-02-15T06:44:46;4.00;4.00;3.00
46302;PMS7003;32029;51.358;5.628;2024-02-15T06:47:15;4.00;3.00;2.20
46302;PMS7003;32029;51.358;5.628;2024-02-15T06:49:46;4.00;4.00;3.20
46302;PMS7003;32029;51.358;5.628;2024-02-15T06:52:12;2.67;2.00;1.33
46302;PMS7003;32029;51.358;5.628;2024-02-15T06:54:40;3.33;3.33;3.00
46302;PMS7003;32029;51.358;5.628;2024-02-15T06:57:10;6.20;4.00;3.00
46302;PMS7003;32029;51.358;5.628;2024-02-15T06:59:38;7.67;4.67;3.00
46302;PMS7003;32029;51.358;5.628;2024-02-15T07:02:06;3.60;3.60;2.60
46302;PMS7003;32029;51.358;5.628;2024-02-15T07:04:34;2.00;2.00;2.00
46302;PMS7003;32029;51.358;5.628;2024-02-15T07:07:01;3.33;3.33;3.00
46302;PMS7003;32029;51.358;5.628;2024-02-15T07:09:30;4.80;4.80;4.00
46302;PMS7003;32029;51.358;5.628;2024-02-15T07:11:58;3.00;3.00;3.00
46302;PMS7003;32029;51.358;5.628;2024-02-15T07:14:25;7.00;5.00;3.00
46302;PMS7003;32029;51.358;5.628;2024-02-15T07:16:54;2.33;1.33;0.00
46302;PMS7003;32029;51.358;5.628;2024-02-15T07:19:23;3.00;3.00;3.00
46302;PMS7003;32029;51.358;5.628;2024-02-15T07:21:50;6.00;4.00;3.00
46302;PMS7003;32029;51.358;5.628;2024-02-15T07:24:18;4.00;4.00;3.00
46302;PMS7003;32029;51.358;5.628;2024-02-15T07:26:46;5.00;3.00;2.80
46302;PMS7003;32029;51.358;5.628;2024-02-15T07:29:13;4.00;4.00;3.00
46302;PMS7003;32029;51.358;5.628;2024-02-15T07:31:41;5.00;4.00;3.00
46302;PMS7003;32029;51.358;5.628;2024-02-15T07:34:08;4.67;4.00;3.67
46302;PMS7003;32029;51.358;5.628;2024-02-15T07:36:37;4.40;4.40;2.60
46302;PMS7003;32029;51.358;5.628;2024-02-15T07:39:05;5.00;3.33;2.00
46302;PMS7003;32029;51.358;5.628;2024-02-15T07:41:32;4.00;3.00;2.00
46302;PMS7003;32029;51.358;5.628;2024-02-15T07:44:00;2.20;2.20;2.00
46302;PMS7003;32029;51.358;5.628;2024-02-15T07:46:27;3.33;3.33;2.00
46302;PMS7003;32029;51.358;5.628;2024-02-15T07:48:54;3.00;3.00;2.33
46302;PMS7003;32029;51.358;5.628;2024-02-15T07:51:21;6.00;3.67;3.00
46302;PMS7003;32029;51.358;5.628;2024-02-15T07:53:49;2.00;2.00;2.00
46302;PMS7003;32029;51.358;5.628;2024-02-15T07:56:17;3.40;3.40;2.60
46302;PMS7003;32029;51.358;5.628;2024-02-15T07:58:47;3.20;3.20;3.00
46302;PMS7003;32029;51.358;5.628;2024-02-15T08:01:15;5.00;4.00;3.00
46302;PMS7003;32029;51.358;5.628;2024-02-15T08:03:48;5.33;4.00;3.00
46302;PMS7003;32029;51.358;5.628;2024-02-15T08:06:16;4.00;4.00;4.00
46302;PMS7003;32029;51.358;5.628;2024-02-15T08:08:45;9.00;4.60;4.20
46302;PMS7003;32029;51.358;5.628;2024-02-15T08:11:14;4.40;3.80;3.00
46302;PMS7003;32029;51.358;5.628;2024-02-15T08:13:45;4.67;4.67;3.00
46302;PMS7003;32029;51.358;5.628;2024-02-15T08:16:16;5.00;4.00;3.67
46302;PMS7003;32029;51.358;5.628;2024-02-15T08:18:43;5.00;5.00;3.00
46302;PMS7003;32029;51.358;5.628;2024-02-15T08:21:11;4.00;4.00;3.20
46302;PMS7003;32029;51.358;5.628;2024-02-15T08:23:40;5.00;4.20;3.80
46302;PMS7003;32029;51.358;5.628;2024-02-15T08:26:07;4.00;4.00;3.00
46302;PMS7003;32029;51.358;5.628;2024-02-15T08:28:33;3.33;3.33;3.00
46302;PMS7003;32029;51.358;5.628;2024-02-15T08:31:01;4.20;4.20;3.20
46302;PMS7003;32029;51.358;5.628;2024-02-15T08:33:31;2.80;2.80;2.20
46302;PMS7003;32029;51.358;5.628;2024-02-15T08:35:59;4.20;4.00;3.20
46302;PMS7003;32029;51.358;5.628;2024-02-15T08:38:29;3.20;3.20;3.00
46302;PMS7003;32029;51.358;5.628;2024-02-15T08:40:57;3.80;3.00;2.60
46302;PMS7003;32029;51.358;5.628;2024-02-15T08:43:25;3.40;3.00;3.00
46302;PMS7003;32029;51.358;5.628;2024-02-15T08:45:51;3.33;3.33;2.33
46302;PMS7003;32029;51.358;5.628;2024-02-15T08:48:20;3.40;3.00;3.00
46302;PMS7003;32029;51.358;5.628;2024-02-15T08:50:51;6.60;5.00;3.00
46302;PMS7003;32029;51.358;5.628;2024-02-15T08:58:35;3.40;3.40;2.60
46302;PMS7003;32029;51.358;5.628;2024-02-15T09:01:02;4.00;4.00;3.00
46302;PMS7003;32029;51.358;5.628;2024-02-15T09:03:33;5.00;3.00;3.00
46302;PMS7003;32029;51.358;5.628;2024-02-15T09:06:18;4.60;4.00;3.80
46302;PMS7003;32029;51.358;5.628;2024-02-15T09:08:51;4.40;4.00;3.00
46302;PMS7003;32029;51.358;5.628;2024-02-15T09:11:19;4.00;4.00;3.00
46302;PMS7003;32029;51.358;5.628;2024-02-15T09:19:05;3.00;3.00;2.33
46302;PMS7003;32029;51.358;5.628;2024-02-15T09:21:33;5.00;3.00;2.00
46302;PMS7003;32029;51.358;5.628;2024-02-15T09:24:04;4.00;4.00;3.00
46302;PMS7003;32029;51.358;5.628;2024-02-15T09:26:34;1.33;1.33;1.33
46302;PMS7003;32029;51.358;5.628;2024-02-15T09:29:01;3.00;2.00;1.67
46302;PMS7003;32029;51.358;5.628;2024-02-15T09:31:30;3.00;2.00;1.60
46302;PMS7003;32029;51.358;5.628;2024-02-15T09:36:35;5.00;2.67;2.00
46302;PMS7003;32029;51.358;5.628;2024-02-15T09:39:05;3.20;2.00;2.00
46302;PMS7003;32029;51.358;5.628;2024-02-15T09:41:33;4.00;2.00;1.60
46302;PMS7003;32029;51.358;5.628;2024-02-15T09:44:01;1.00;1.00;1.00
46302;PMS7003;32029;51.358;5.628;2024-02-15T09:46:29;3.00;3.00;2.00
46302;PMS7003;32029;51.358;5.628;2024-02-15T09:49:08;4.00;3.00;3.00
46302;PMS7003;32029;51.358;5.628;2024-02-15T09:51:35;3.00;1.33;1.00
46302;PMS7003;32029;51.358;5.628;2024-02-15T09:54:04;2.00;1.33;1.00
46302;PMS7003;32029;51.358;5.628;2024-02-15T09:56:32;2.00;2.00;2.00
46302;PMS7003;32029;51.358;5.628;2024-02-15T09:59:01;2.00;2.00;1.00
46302;PMS7003;32029;51.358;5.628;2024-02-15T10:01:30;2.67;2.33;2.00
46302;PMS7003;32029;51.358;5.628;2024-02-15T10:03:59;3.00;3.00;2.60
46302;PMS7003;32029;51.358;5.628;2024-02-15T10:06:34;1.80;1.00;1.00
46302;PMS7003;32029;51.358;5.628;2024-02-15T10:11:59;3.00;1.00;1.00
46302;PMS7003;32029;51.358;5.628;2024-02-15T10:14:27;2.00;2.00;1.67
46302;PMS7003;32029;51.358;5.628;2024-02-15T10:16:55;1.33;1.33;1.33
46302;PMS7003;32029;51.358;5.628;2024-02-15T10:19:22;2.00;2.00;2.00
46302;PMS7003;32029;51.358;5.628;2024-02-15T10:21:54;2.00;1.00;1.00
46302;PMS7003;32029;51.358;5.628;2024-02-15T10:24:24;1.00;1.00;1.00
46302;PMS7003;32029;51.358;5.628;2024-02-15T10:26:52;2.20;2.00;1.60
46302;PMS7003;32029;51.358;5.628;2024-02-15T10:29:30;3.00;1.00;1.00
46302;PMS7003;32029;51.358;5.628;2024-02-15T10:31:59;3.00;2.00;2.00
46302;PMS7003;32029;51.358;5.628;2024-02-15T10:34:27;4.67;2.00;2.00
46302;PMS7003;32029;51.358;5.628;2024-02-15T10:36:54;2.67;2.67;2.00
46302;PMS7003;32029;51.358;5.628;2024-02-15T10:39:24;2.00;2.00;1.00
46302;PMS7003;32029;51.358;5.628;2024-02-15T10:41:52;2.33;1.00;1.00
46302;PMS7003;32029;51.358;5.628;2024-02-15T10:44:21;2.67;2.67;2.00
46302;PMS7003;32029;51.358;5.628;2024-02-15T10:46:52;2.67;1.67;1.00
46302;PMS7003;32029;51.358;5.628;2024-02-15T10:49:23;1.33;1.33;1.00
46302;PMS7003;32029;51.358;5.628;2024-02-15T10:51:57;1.00;1.00;1.00
46302;PMS7003;32029;51.358;5.628;2024-02-15T10:56:59;3.67;1.67;1.00
46302;PMS7003;32029;51.358;5.628;2024-02-15T10:59:35;3.00;2.00;1.00
46302;PMS7003;32029;51.358;5.628;2024-02-15T11:02:11;1.00;1.00;1.00
46302;PMS7003;32029;51.358;5.628;2024-02-15T11:04:53;1.67;1.67;1.33
46302;PMS7003;32029;51.358;5.628;2024-02-15T11:07:24;2.00;1.00;1.00
46302;PMS7003;32029;51.358;5.628;2024-02-15T11:09:54;1.00;1.00;1.00
46302;PMS7003;32029;51.358;5.628;2024-02-15T11:12:22;1.33;1.33;1.00
46302;PMS7003;32029;51.358;5.628;2024-02-15T11:14:52;1.67;1.67;1.00
46302;PMS7003;32029;51.358;5.628;2024-02-15T11:20:06;1.00;1.00;1.00
46302;PMS7003;32029;51.358;5.628;2024-02-15T11:22:40;1.00;1.00;1.00
46302;PMS7003;32029;51.358;5.628;2024-02-15T11:25:10;2.00;2.00;1.00
46302;PMS7003;32029;51.358;5.628;2024-02-15T11:27:39;2.00;2.00;2.00
46302;PMS7003;32029;51.358;5.628;2024-02-15T11:30:07;3.00;1.33;1.00
46302;PMS7003;32029;51.358;5.628;2024-02-15T11:35:21;1.60;1.60;1.00
46302;PMS7003;32029;51.358;5.628;2024-02-15T11:37:53;0.80;0.80;0.80
46302;PMS7003;32029;51.358;5.628;2024-02-15T11:40:25;2.00;1.00;1.00
46302;PMS7003;32029;51.358;5.628;2024-02-15T11:42:54;1.33;1.00;1.00
46302;PMS7003;32029;51.358;5.628;2024-02-15T11:45:26;0.40;0.40;0.40
46302;PMS7003;32029;51.358;5.628;2024-02-15T11:48:14;1.00;1.00;1.00
46302;PMS7003;32029;51.358;5.628;2024-02-15T11:50:41;2.67;1.00;1.00
46302;PMS7003;32029;51.358;5.628;2024-02-15T11:53:08;2.00;1.00;1.00
46302;PMS7003;32029;51.358;5.628;2024-02-15T11:55:36;2.00;1.00;1.00
46302;PMS7003;32029;51.358;5.628;2024-02-15T11:58:06;0.60;0.60;0.00
46302;PMS7003;32029;51.358;5.628;2024-02-15T12:00:36;1.00;1.00;1.00
46302;PMS7003;32029;51.358;5.628;2024-02-15T12:03:23;2.00;2.00;1.00
46302;PMS7003;32029;51.358;5.628;2024-02-15T12:06:10;1.40;1.00;1.00
46302;PMS7003;32029;51.358;5.628;2024-02-15T12:08:56;1.00;1.00;1.00
46302;PMS7003;32029;51.358;5.628;2024-02-15T12:11:41;1.00;1.00;1.00
46302;PMS7003;32029;51.358;5.628;2024-02-15T12:14:28;1.60;1.00;1.00
46302;PMS7003;32029;51.358;5.628;2024-02-15T12:17:14;1.00;1.00;0.60
46302;PMS7003;32029;51.358;5.628;2024-02-15T12:20:00;1.00;1.00;1.00
46302;PMS7003;32029;51.358;5.628;2024-02-15T12:22:43;1.80;0.80;0.60
46302;PMS7003;32029;51.358;5.628;2024-02-15T12:25:14;0.60;0.60;0.60
46302;PMS7003;32029;51.358;5.628;2024-02-15T12:27:45;1.00;1.00;0.67
46302;PMS7003;32029;51.358;5.628;2024-02-15T12:30:14;2.00;1.00;1.00
46302;PMS7003;32029;51.358;5.628;2024-02-15T12:32:41;1.00;0.00;0.00
46302;PMS7003;32029;51.358;5.628;2024-02-15T12:35:10;1.00;1.00;0.00
46302;PMS7003;32029;51.358;5.628;2024-02-15T12:37:43;1.40;0.20;0.00
46302;PMS7003;32029;51.358;5.628;2024-02-15T12:40:10;0.00;0.00;0.00
46302;PMS7003;32029;51.358;5.628;2024-02-15T12:42:43;0.00;0.00;0.00
46302;PMS7003;32029;51.358;5.628;2024-02-15T12:45:15;0.60;0.00;0.00
46302;PMS7003;32029;51.358;5.628;2024-02-15T12:47:49;2.00;1.00;1.00
46302;PMS7003;32029;51.358;5.628;2024-02-15T12:50:19;0.00;0.00;0.00
46302;PMS7003;32029;51.358;5.628;2024-02-15T12:52:49;0.80;0.80;0.60
46302;PMS7003;32029;51.358;5.628;2024-02-15T12:57:50;0.60;0.00;0.00
46302;PMS7003;32029;51.358;5.628;2024-02-15T13:00:19;1.00;0.00;0.00
46302;PMS7003;32029;51.358;5.628;2024-02-15T13:02:49;0.80;0.80;0.80
46302;PMS7003;32029;51.358;5.628;2024-02-15T13:05:18;1.60;1.00;0.20
46302;PMS7003;32029;51.358;5.628;2024-02-15T13:07:46;1.20;0.80;0.40
46302;PMS7003;32029;51.358;5.628;2024-02-15T13:10:17;0.00;0.00;0.00
46302;PMS7003;32029;51.358;5.628;2024-02-15T13:12:45;0.20;0.20;0.20
46302;PMS7003;32029;51.358;5.628;2024-02-15T13:15:14;0.00;0.00;0.00
46302;PMS7003;32029;51.358;5.628;2024-02-15T13:17:44;0.60;0.60;0.00
46302;PMS7003;32029;51.358;5.628;2024-02-15T13:20:13;0.00;0.00;0.00
46302;PMS7003;32029;51.358;5.628;2024-02-15T13:22:41;0.00;0.00;0.00
46302;PMS7003;32029;51.358;5.628;2024-02-15T13:25:11;0.00;0.00;0.00
46302;PMS7003;32029;51.358;5.628;2024-02-15T13:27:38;0.00;0.00;0.00
46302;PMS7003;32029;51.358;5.628;2024-02-15T13:30:06;0.00;0.00;0.00
46302;PMS7003;32029;51.358;5.628;2024-02-15T13:32:38;0.00;0.00;0.00
46302;PMS7003;32029;51.358;5.628;2024-02-15T13:35:08;1.00;0.00;0.00
46302;PMS7003;32029;51.358;5.628;2024-02-15T13:37:40;0.60;0.00;0.00
46302;PMS7003;32029;51.358;5.628;2024-02-15T13:40:15;0.00;0.00;0.00
46302;PMS7003;32029;51.358;5.628;2024-02-15T13:42:46;0.00;0.00;0.00
46302;PMS7003;32029;51.358;5.628;2024-02-15T13:45:20;0.40;0.40;0.40
46302;PMS7003;32029;51.358;5.628;2024-02-15T13:47:56;0.00;0.00;0.00
46302;PMS7003;32029;51.358;5.628;2024-02-15T13:50:24;0.00;0.00;0.00
46302;PMS7003;32029;51.358;5.628;2024-02-15T13:52:52;0.00;0.00;0.00
46302;PMS7003;32029;51.358;5.628;2024-02-15T13:55:19;0.00;0.00;0.00
46302;PMS7003;32029;51.358;5.628;2024-02-15T13:57:49;0.20;0.00;0.00
46302;PMS7003;32029;51.358;5.628;2024-02-15T14:00:19;0.00;0.00;0.00
46302;PMS7003;32029;51.358;5.628;2024-02-15T14:02:53;1.00;0.00;0.00
46302;PMS7003;32029;51.358;5.628;2024-02-15T14:05:24;0.00;0.00;0.00
46302;PMS7003;32029;51.358;5.628;2024-02-15T14:07:56;0.00;0.00;0.00
46302;PMS7003;32029;51.358;5.628;2024-02-15T14:10:33;0.00;0.00;0.00
46302;PMS7003;32029;51.358;5.628;2024-02-15T14:13:04;0.00;0.00;0.00
46302;PMS7003;32029;51.358;5.628;2024-02-15T14:15:33;0.20;0.00;0.00
46302;PMS7003;32029;51.358;5.628;2024-02-15T14:18:08;0.00;0.00;0.00
46302;PMS7003;32029;51.358;5.628;2024-02-15T14:20:45;0.60;0.60;0.40
46302;PMS7003;32029;51.358;5.628;2024-02-15T14:23:14;0.00;0.00;0.00
46302;PMS7003;32029;51.358;5.628;2024-02-15T14:25:43;0.00;0.00;0.00
46302;PMS7003;32029;51.358;5.628;2024-02-15T14:28:11;0.40;0.40;0.00
46302;PMS7003;32029;51.358;5.628;2024-02-15T14:30:40;0.00;0.00;0.00
46302;PMS7003;32029;51.358;5.628;2024-02-15T14:33:27;0.60;0.00;0.00
46302;PMS7003;32029;51.358;5.628;2024-02-15T14:35:55;0.40;0.40;0.00
46302;PMS7003;32029;51.358;5.628;2024-02-15T14:38:23;1.00;0.00;0.00
46302;PMS7003;32029;51.358;5.628;2024-02-15T14:40:51;0.20;0.20;0.00
46302;PMS7003;32029;51.358;5.628;2024-02-15T14:43:23;0.00;0.00;0.00
46302;PMS7003;32029;51.358;5.628;2024-02-15T14:45:52;0.00;0.00;0.00
46302;PMS7003;32029;51.358;5.628;2024-02-15T14:48:23;1.00;0.60;0.60
46302;PMS7003;32029;51.358;5.628;2024-02-15T14:50:51;0.00;0.00;0.00
46302;PMS7003;32029;51.358;5.628;2024-02-15T14:53:19;0.20;0.20;0.20
46302;PMS7003;32029;51.358;5.628;2024-02-15T14:55:47;1.20;1.20;1.20
46302;PMS7003;32029;51.358;5.628;2024-02-15T14:58:16;0.20;0.20;0.20